sensor_id;sensor_type;location;lat;lon;timestamp;pressure;altitude;pressure_sealevel;temperature;humidity
77288;BME280;66345;42.694;23.346;2023-04-24T00:00:33;95266.84;;;12.15;52.86
77288;BME280;66345;42.694;23.346;2023-04-24T00:02:58;95267.47;;;12.04;52.94
77288;BME280;66345;42.694;23.346;2023-04-24T00:05:24;95262.13;;;11.84;52.13
77288;BME280;66345;42.694;23.346;2023-04-24T00:07:50;95258.03;;;11.88;52.34
77288;BME280;66345;42.694;23.346;2023-04-24T00:10:19;95261.06;;;11.72;51.86
77288;BME280;66345;42.694;23.346;2023-04-24T00:12:45;95253.66;;;11.61;52.25
77288;BME280;66345;42.694;23.346;2023-04-24T00:15:11;95259.56;;;11.50;52.35
77288;BME280;66345;42.694;23.346;2023-04-24T00:17:37;95256.00;;;11.29;53.35
77288;BME280;66345;42.694;23.346;2023-04-24T00:20:03;95254.75;;;11.25;53.09
77288;BME280;66345;42.694;23.346;2023-04-24T00:22:30;95249.81;;;11.16;53.43
77288;BME280;66345;42.694;23.346;2023-04-24T00:24:56;95246.34;;;11.15;52.96
77288;BME280;66345;42.694;23.346;2023-04-24T00:27:22;95241.19;;;11.00;53.97
77288;BME280;66345;42.694;23.346;2023-04-24T00:29:47;95239.66;;;10.84;54.07
77288;BME280;66345;42.694;23.346;2023-04-24T00:32:13;95238.97;;;11.04;54.21
77288;BME280;66345;42.694;23.346;2023-04-24T00:34:39;95238.97;;;11.10;53.99
77288;BME280;66345;42.694;23.346;2023-04-24T00:37:04;95247.59;;;11.19;53.27
77288;BME280;66345;42.694;23.346;2023-04-24T00:39:30;95248.59;;;11.18;55.08
77288;BME280;66345;42.694;23.346;2023-04-24T00:41:56;95239.25;;;10.88;56.18
77288;BME280;66345;42.694;23.346;2023-04-24T00:44:22;95242.59;;;10.96;55.80
77288;BME280;66345;42.694;23.346;2023-04-24T00:46:49;95251.41;;;11.03;55.42
77288;BME280;66345;42.694;23.346;2023-04-24T00:49:20;95255.81;;;11.31;54.65
77288;BME280;66345;42.694;23.346;2023-04-24T00:51:46;95256.50;;;11.53;53.80
77288;BME280;66345;42.694;23.346;2023-04-24T00:54:15;95242.78;;;11.56;53.22
77288;BME280;66345;42.694;23.346;2023-04-24T00:56:41;95231.97;;;11.51;53.10
77288;BME280;66345;42.694;23.346;2023-04-24T00:59:07;95235.25;;;11.53;52.96
77288;BME280;66345;42.694;23.346;2023-04-24T01:01:34;95225.44;;;11.60;52.88
77288;BME280;66345;42.694;23.346;2023-04-24T01:04:00;95247.25;;;11.35;53.41
77288;BME280;66345;42.694;23.346;2023-04-24T01:06:29;95248.31;;;11.41;53.40
77288;BME280;66345;42.694;23.346;2023-04-24T01:08:57;95231.09;;;11.30;54.26
77288;BME280;66345;42.694;23.346;2023-04-24T01:11:24;95235.56;;;11.23;54.27
77288;BME280;66345;42.694;23.346;2023-04-24T01:13:50;95239.53;;;11.54;54.14
77288;BME280;66345;42.694;23.346;2023-04-24T01:16:16;95236.81;;;11.27;54.75
77288;BME280;66345;42.694;23.346;2023-04-24T01:18:43;95235.72;;;11.15;56.31
77288;BME280;66345;42.694;23.346;2023-04-24T01:21:13;95230.66;;;11.20;56.10
77288;BME280;66345;42.694;23.346;2023-04-24T01:23:39;95226.72;;;11.09;56.98
77288;BME280;66345;42.694;23.346;2023-04-24T01:26:05;95224.66;;;11.05;56.45
77288;BME280;66345;42.694;23.346;2023-04-24T01:28:31;95211.72;;;10.89;57.99
77288;BME280;66345;42.694;23.346;2023-04-24T01:30:56;95210.75;;;10.96;57.18
77288;BME280;66345;42.694;23.346;2023-04-24T01:33:23;95216.69;;;11.05;57.78
77288;BME280;66345;42.694;23.346;2023-04-24T01:35:49;95211.22;;;11.13;57.02
77288;BME280;66345;42.694;23.346;2023-04-24T01:38:15;95205.00;;;10.93;57.70
77288;BME280;66345;42.694;23.346;2023-04-24T01:40:40;95207.28;;;11.02;57.96
77288;BME280;66345;42.694;23.346;2023-04-24T01:43:06;95215.34;;;10.74;57.52
77288;BME280;66345;42.694;23.346;2023-04-24T01:45:32;95210.00;;;10.68;58.24
77288;BME280;66345;42.694;23.346;2023-04-24T01:47:58;95207.78;;;10.78;57.96
77288;BME280;66345;42.694;23.346;2023-04-24T01:50:24;95218.03;;;10.46;58.48
77288;BME280;66345;42.694;23.346;2023-04-24T01:52:49;95206.03;;;10.50;58.54
77288;BME280;66345;42.694;23.346;2023-04-24T01:55:15;95196.84;;;10.53;58.90
77288;BME280;66345;42.694;23.346;2023-04-24T01:57:40;95194.00;;;10.54;58.92
77288;BME280;66345;42.694;23.346;2023-04-24T02:00:06;95195.69;;;10.34;59.40
77288;BME280;66345;42.694;23.346;2023-04-24T02:02:33;95202.81;;;10.34;59.92
77288;BME280;66345;42.694;23.346;2023-04-24T02:04:59;95204.31;;;10.15;59.33
77288;BME280;66345;42.694;23.346;2023-04-24T02:07:25;95200.31;;;10.25;59.62
77288;BME280;66345;42.694;23.346;2023-04-24T02:09:50;95198.69;;;10.24;59.46
77288;BME280;66345;42.694;23.346;2023-04-24T02:12:16;95201.81;;;10.35;59.65
77288;BME280;66345;42.694;23.346;2023-04-24T02:14:45;95196.28;;;10.30;59.99
77288;BME280;66345;42.694;23.346;2023-04-24T02:17:10;95193.75;;;10.21;59.34
77288;BME280;66345;42.694;23.346;2023-04-24T02:19:37;95198.75;;;10.31;60.01
77288;BME280;66345;42.694;23.346;2023-04-24T02:22:02;95201.34;;;10.03;59.19
77288;BME280;66345;42.694;23.346;2023-04-24T02:24:28;95200.84;;;10.14;60.32
77288;BME280;66345;42.694;23.346;2023-04-24T02:26:53;95199.38;;;10.12;59.98
77288;BME280;66345;42.694;23.346;2023-04-24T02:29:19;95204.66;;;10.05;61.45
77288;BME280;66345;42.694;23.346;2023-04-24T02:31:44;95194.81;;;9.99;60.87
77288;BME280;66345;42.694;23.346;2023-04-24T02:34:10;95198.16;;;9.86;61.62
77288;BME280;66345;42.694;23.346;2023-04-24T02:36:35;95198.94;;;9.59;62.65
77288;BME280;66345;42.694;23.346;2023-04-24T02:39:01;95182.75;;;9.68;62.24
77288;BME280;66345;42.694;23.346;2023-04-24T02:41:26;95178.06;;;9.70;61.86
77288;BME280;66345;42.694;23.346;2023-04-24T02:43:57;95173.75;;;9.91;61.26
77288;BME280;66345;42.694;23.346;2023-04-24T02:46:24;95176.94;;;10.08;60.31
77288;BME280;66345;42.694;23.346;2023-04-24T02:48:50;95172.41;;;10.01;60.71
77288;BME280;66345;42.694;23.346;2023-04-24T02:51:15;95162.56;;;9.95;60.42
77288;BME280;66345;42.694;23.346;2023-04-24T02:53:40;95174.38;;;9.93;60.91
77288;BME280;66345;42.694;23.346;2023-04-24T02:56:06;95171.00;;;9.78;60.80
77288;BME280;66345;42.694;23.346;2023-04-24T02:58:31;95174.66;;;9.77;61.69
77288;BME280;66345;42.694;23.346;2023-04-24T03:00:57;95172.59;;;10.00;60.38
77288;BME280;66345;42.694;23.346;2023-04-24T03:03:23;95170.50;;;9.95;59.98
77288;BME280;66345;42.694;23.346;2023-04-24T03:05:49;95174.75;;;9.90;61.23
77288;BME280;66345;42.694;23.346;2023-04-24T03:08:14;95182.16;;;9.73;61.97
77288;BME280;66345;42.694;23.346;2023-04-24T03:10:40;95178.88;;;9.71;62.47
77288;BME280;66345;42.694;23.346;2023-04-24T03:13:05;95185.19;;;9.49;63.19
77288;BME280;66345;42.694;23.346;2023-04-24T03:15:31;95189.34;;;9.58;63.25
77288;BME280;66345;42.694;23.346;2023-04-24T03:17:56;95183.81;;;9.31;64.03
77288;BME280;66345;42.694;23.346;2023-04-24T03:20:22;95188.41;;;9.23;64.47
77288;BME280;66345;42.694;23.346;2023-04-24T03:22:47;95199.25;;;9.28;63.99
77288;BME280;66345;42.694;23.346;2023-04-24T03:25:13;95193.44;;;9.17;64.45
77288;BME280;66345;42.694;23.346;2023-04-24T03:27:38;95189.59;;;9.20;64.63
77288;BME280;66345;42.694;23.346;2023-04-24T03:30:08;95190.81;;;9.39;64.10
77288;BME280;66345;42.694;23.346;2023-04-24T03:32:34;95202.09;;;9.26;65.02
77288;BME280;66345;42.694;23.346;2023-04-24T03:35:00;95192.75;;;9.09;65.40
77288;BME280;66345;42.694;23.346;2023-04-24T03:37:26;95190.16;;;9.37;64.35
77288;BME280;66345;42.694;23.346;2023-04-24T03:39:52;95192.72;;;9.45;64.48
77288;BME280;66345;42.694;23.346;2023-04-24T03:42:17;95185.72;;;9.37;64.42
77288;BME280;66345;42.694;23.346;2023-04-24T03:44:43;95195.06;;;9.18;65.25
77288;BME280;66345;42.694;23.346;2023-04-24T03:47:08;95193.63;;;9.16;65.24
77288;BME280;66345;42.694;23.346;2023-04-24T03:49:34;95197.34;;;9.22;64.81
77288;BME280;66345;42.694;23.346;2023-04-24T03:51:59;95193.41;;;9.32;65.28
77288;BME280;66345;42.694;23.346;2023-04-24T03:54:25;95188.16;;;9.39;64.53
77288;BME280;66345;42.694;23.346;2023-04-24T03:56:51;95187.97;;;9.62;63.88
77288;BME280;66345;42.694;23.346;2023-04-24T03:59:17;95187.16;;;9.61;64.08
77288;BME280;66345;42.694;23.346;2023-04-24T04:01:42;95178.63;;;9.66;62.77
77288;BME280;66345;42.694;23.346;2023-04-24T04:04:08;95189.47;;;9.92;62.83
77288;BME280;66345;42.694;23.346;2023-04-24T04:06:33;95185.41;;;9.96;60.08
77288;BME280;66345;42.694;23.346;2023-04-24T04:08:59;95192.84;;;10.08;62.04
77288;BME280;66345;42.694;23.346;2023-04-24T04:11:25;95197.44;;;10.20;58.02
77288;BME280;66345;42.694;23.346;2023-04-24T04:13:51;95188.13;;;10.31;58.08
77288;BME280;66345;42.694;23.346;2023-04-24T04:16:16;95189.41;;;10.14;57.37
77288;BME280;66345;42.694;23.346;2023-04-24T04:18:43;95187.59;;;10.14;57.34
77288;BME280;66345;42.694;23.346;2023-04-24T04:21:08;95189.91;;;10.24;56.78
77288;BME280;66345;42.694;23.346;2023-04-24T04:23:35;95190.34;;;10.62;56.38
77288;BME280;66345;42.694;23.346;2023-04-24T04:26:01;95189.13;;;10.58;55.88
77288;BME280;66345;42.694;23.346;2023-04-24T04:28:27;95190.69;;;10.46;56.44
77288;BME280;66345;42.694;23.346;2023-04-24T04:30:53;95200.44;;;10.73;55.71
77288;BME280;66345;42.694;23.346;2023-04-24T04:33:23;95199.13;;;11.04;54.44
77288;BME280;66345;42.694;23.346;2023-04-24T04:35:48;95203.53;;;10.83;54.79
77288;BME280;66345;42.694;23.346;2023-04-24T04:38:15;95195.47;;;11.05;54.18
77288;BME280;66345;42.694;23.346;2023-04-24T04:40:42;95204.09;;;11.20;53.61
77288;BME280;66345;42.694;23.346;2023-04-24T04:43:07;95207.50;;;11.07;53.71
77288;BME280;66345;42.694;23.346;2023-04-24T04:45:33;95207.94;;;11.11;53.61
77288;BME280;66345;42.694;23.346;2023-04-24T04:47:59;95212.63;;;11.09;54.35
77288;BME280;66345;42.694;23.346;2023-04-24T04:50:28;95217.50;;;11.05;53.72
77288;BME280;66345;42.694;23.346;2023-04-24T04:52:54;95218.91;;;11.01;53.97
77288;BME280;66345;42.694;23.346;2023-04-24T04:55:21;95225.00;;;10.89;54.79
77288;BME280;66345;42.694;23.346;2023-04-24T04:57:47;95223.44;;;11.07;54.05
77288;BME280;66345;42.694;23.346;2023-04-24T05:00:12;95217.47;;;10.99;54.43
77288;BME280;66345;42.694;23.346;2023-04-24T05:02:40;95224.22;;;11.01;54.99
77288;BME280;66345;42.694;23.346;2023-04-24T05:05:06;95224.94;;;11.23;54.15
77288;BME280;66345;42.694;23.346;2023-04-24T05:07:32;95225.88;;;11.77;52.88
77288;BME280;66345;42.694;23.346;2023-04-24T05:09:57;95228.19;;;12.00;52.84
77288;BME280;66345;42.694;23.346;2023-04-24T05:12:23;95225.03;;;11.70;54.55
77288;BME280;66345;42.694;23.346;2023-04-24T05:14:48;95218.47;;;11.52;55.98
77288;BME280;66345;42.694;23.346;2023-04-24T05:17:14;95226.69;;;11.64;55.95
77288;BME280;66345;42.694;23.346;2023-04-24T05:19:40;95223.41;;;11.68;56.08
77288;BME280;66345;42.694;23.346;2023-04-24T05:22:05;95223.38;;;11.42;56.07
77288;BME280;66345;42.694;23.346;2023-04-24T05:24:32;95216.13;;;11.90;54.67
77288;BME280;66345;42.694;23.346;2023-04-24T05:26:58;95214.91;;;12.26;53.25
77288;BME280;66345;42.694;23.346;2023-04-24T05:29:24;95221.03;;;12.07;53.05
77288;BME280;66345;42.694;23.346;2023-04-24T05:31:51;95211.81;;;12.16;52.00
77288;BME280;66345;42.694;23.346;2023-04-24T05:34:16;95212.84;;;12.21;52.35
77288;BME280;66345;42.694;23.346;2023-04-24T05:36:42;95216.69;;;12.45;51.94
77288;BME280;66345;42.694;23.346;2023-04-24T05:39:08;95213.19;;;12.78;51.26
77288;BME280;66345;42.694;23.346;2023-04-24T05:41:33;95217.91;;;13.34;50.09
77288;BME280;66345;42.694;23.346;2023-04-24T05:43:59;95218.63;;;13.54;48.10
77288;BME280;66345;42.694;23.346;2023-04-24T05:46:24;95215.94;;;14.42;46.66
77288;BME280;66345;42.694;23.346;2023-04-24T05:48:50;95210.47;;;15.36;43.65
77288;BME280;66345;42.694;23.346;2023-04-24T05:51:15;95211.81;;;16.28;41.70
77288;BME280;66345;42.694;23.346;2023-04-24T05:53:41;95212.63;;;15.75;42.50
77288;BME280;66345;42.694;23.346;2023-04-24T05:56:06;95213.91;;;16.26;42.26
77288;BME280;66345;42.694;23.346;2023-04-24T05:58:32;95219.41;;;15.41;43.50
77288;BME280;66345;42.694;23.346;2023-04-24T06:00:57;95211.00;;;15.08;44.77
77288;BME280;66345;42.694;23.346;2023-04-24T06:03:24;95206.75;;;15.18;44.84
77288;BME280;66345;42.694;23.346;2023-04-24T06:05:50;95225.00;;;15.40;43.99
77288;BME280;66345;42.694;23.346;2023-04-24T06:08:16;95211.22;;;15.54;44.12
77288;BME280;66345;42.694;23.346;2023-04-24T06:10:42;95204.03;;;16.62;41.40
77288;BME280;66345;42.694;23.346;2023-04-24T06:13:07;95210.94;;;16.93;40.82
77288;BME280;66345;42.694;23.346;2023-04-24T06:15:33;95210.09;;;18.30;38.28
77288;BME280;66345;42.694;23.346;2023-04-24T06:17:58;95207.09;;;18.77;36.63
77288;BME280;66345;42.694;23.346;2023-04-24T06:20:24;95206.72;;;19.29;36.04
77288;BME280;66345;42.694;23.346;2023-04-24T06:22:50;95196.53;;;20.34;34.34
77288;BME280;66345;42.694;23.346;2023-04-24T06:25:15;95198.94;;;21.52;31.97
77288;BME280;66345;42.694;23.346;2023-04-24T06:27:41;95204.31;;;21.42;32.07
77288;BME280;66345;42.694;23.346;2023-04-24T06:30:08;95208.06;;;21.46;31.38
77288;BME280;66345;42.694;23.346;2023-04-24T06:32:33;95211.66;;;20.67;32.89
77288;BME280;66345;42.694;23.346;2023-04-24T06:34:59;95209.16;;;20.01;34.46
77288;BME280;66345;42.694;23.346;2023-04-24T06:37:24;95219.88;;;18.70;36.75
77288;BME280;66345;42.694;23.346;2023-04-24T06:39:50;95208.97;;;19.37;35.74
77288;BME280;66345;42.694;23.346;2023-04-24T06:42:15;95218.00;;;19.70;35.23
77288;BME280;66345;42.694;23.346;2023-04-24T06:44:40;95214.47;;;19.47;35.65
77288;BME280;66345;42.694;23.346;2023-04-24T06:47:07;95208.19;;;20.71;33.66
77288;BME280;66345;42.694;23.346;2023-04-24T06:49:36;95211.47;;;21.26;32.47
77288;BME280;66345;42.694;23.346;2023-04-24T06:52:02;95209.47;;;21.01;32.76
77288;BME280;66345;42.694;23.346;2023-04-24T06:54:28;95208.44;;;21.12;32.98
77288;BME280;66345;42.694;23.346;2023-04-24T06:56:54;95203.72;;;22.12;31.08
77288;BME280;66345;42.694;23.346;2023-04-24T06:59:20;95205.34;;;22.85;29.48
77288;BME280;66345;42.694;23.346;2023-04-24T07:01:46;95200.78;;;22.55;30.40
77288;BME280;66345;42.694;23.346;2023-04-24T07:04:11;95197.53;;;22.22;30.83
77288;BME280;66345;42.694;23.346;2023-04-24T07:06:38;95206.22;;;19.76;34.44
77288;BME280;66345;42.694;23.346;2023-04-24T07:09:04;95202.34;;;19.93;34.87
77288;BME280;66345;42.694;23.346;2023-04-24T07:11:30;95200.59;;;20.63;33.45
77288;BME280;66345;42.694;23.346;2023-04-24T07:13:55;95203.69;;;20.18;34.85
77288;BME280;66345;42.694;23.346;2023-04-24T07:16:21;95199.41;;;19.68;35.74
77288;BME280;66345;42.694;23.346;2023-04-24T07:18:46;95198.31;;;20.92;33.94
77288;BME280;66345;42.694;23.346;2023-04-24T07:21:12;95186.75;;;23.68;29.73
77288;BME280;66345;42.694;23.346;2023-04-24T07:23:37;95187.03;;;23.57;29.31
77288;BME280;66345;42.694;23.346;2023-04-24T07:26:03;95189.16;;;22.54;30.74
77288;BME280;66345;42.694;23.346;2023-04-24T07:28:28;95182.38;;;22.92;30.50
77288;BME280;66345;42.694;23.346;2023-04-24T07:30:57;95186.97;;;22.66;30.74
77288;BME280;66345;42.694;23.346;2023-04-24T07:33:22;95178.63;;;24.57;28.24
77288;BME280;66345;42.694;23.346;2023-04-24T07:35:48;95185.84;;;22.06;31.43
77288;BME280;66345;42.694;23.346;2023-04-24T07:38:14;95166.03;;;25.72;27.10
77288;BME280;66345;42.694;23.346;2023-04-24T07:40:39;95178.31;;;26.07;25.36
77288;BME280;66345;42.694;23.346;2023-04-24T07:43:05;95169.66;;;27.35;24.35
77288;BME280;66345;42.694;23.346;2023-04-24T07:45:30;95161.16;;;27.64;24.09
77288;BME280;66345;42.694;23.346;2023-04-24T07:47:56;95166.84;;;27.41;24.27
77288;BME280;66345;42.694;23.346;2023-04-24T07:50:22;95160.78;;;28.57;22.67
77288;BME280;66345;42.694;23.346;2023-04-24T07:52:47;95154.06;;;29.17;22.15
77288;BME280;66345;42.694;23.346;2023-04-24T07:55:13;95157.75;;;30.52;20.21
77288;BME280;66345;42.694;23.346;2023-04-24T07:57:38;95148.47;;;29.22;21.69
77288;BME280;66345;42.694;23.346;2023-04-24T08:00:04;95165.72;;;27.83;22.29
77288;BME280;66345;42.694;23.346;2023-04-24T08:02:31;95154.13;;;27.22;23.10
77288;BME280;66345;42.694;23.346;2023-04-24T08:04:57;95155.50;;;28.25;22.40
77288;BME280;66345;42.694;23.346;2023-04-24T08:07:23;95148.44;;;30.53;20.15
77288;BME280;66345;42.694;23.346;2023-04-24T08:09:49;95153.56;;;30.63;20.20
77288;BME280;66345;42.694;23.346;2023-04-24T08:12:14;95159.69;;;29.12;21.49
77288;BME280;66345;42.694;23.346;2023-04-24T08:14:40;95149.47;;;27.23;23.69
77288;BME280;66345;42.694;23.346;2023-04-24T08:17:05;95145.00;;;29.87;20.97
77288;BME280;66345;42.694;23.346;2023-04-24T08:19:31;95133.94;;;28.82;22.70
77288;BME280;66345;42.694;23.346;2023-04-24T08:21:56;95134.50;;;28.92;22.38
77288;BME280;66345;42.694;23.346;2023-04-24T08:24:22;95127.13;;;30.59;20.37
77288;BME280;66345;42.694;23.346;2023-04-24T08:26:47;95134.97;;;26.81;24.25
77288;BME280;66345;42.694;23.346;2023-04-24T08:29:17;95127.44;;;29.31;21.59
77288;BME280;66345;42.694;23.346;2023-04-24T08:31:43;95128.75;;;27.90;22.68
77288;BME280;66345;42.694;23.346;2023-04-24T08:34:09;95120.59;;;31.15;19.21
77288;BME280;66345;42.694;23.346;2023-04-24T08:36:35;95127.81;;;30.30;20.31
77288;BME280;66345;42.694;23.346;2023-04-24T08:39:02;95115.63;;;32.06;18.72
77288;BME280;66345;42.694;23.346;2023-04-24T08:41:28;95117.00;;;31.32;19.25
77288;BME280;66345;42.694;23.346;2023-04-24T08:43:54;95121.91;;;28.60;21.70
77288;BME280;66345;42.694;23.346;2023-04-24T08:46:20;95112.56;;;28.30;22.57
77288;BME280;66345;42.694;23.346;2023-04-24T08:48:47;95112.63;;;26.00;25.49
77288;BME280;66345;42.694;23.346;2023-04-24T08:51:13;95112.00;;;28.42;22.73
77288;BME280;66345;42.694;23.346;2023-04-24T08:53:39;95102.00;;;29.79;21.09
77288;BME280;66345;42.694;23.346;2023-04-24T08:56:07;95100.00;;;28.29;22.67
77288;BME280;66345;42.694;23.346;2023-04-24T08:58:33;95099.25;;;27.65;23.30
77288;BME280;66345;42.694;23.346;2023-04-24T09:00:58;95100.50;;;28.54;21.65
77288;BME280;66345;42.694;23.346;2023-04-24T09:03:26;95086.09;;;27.31;23.52
77288;BME280;66345;42.694;23.346;2023-04-24T09:05:52;95080.91;;;30.66;19.93
77288;BME280;66345;42.694;23.346;2023-04-24T09:08:19;95081.97;;;28.64;22.46
77288;BME280;66345;42.694;23.346;2023-04-24T09:10:47;95086.47;;;28.24;22.80
77288;BME280;66345;42.694;23.346;2023-04-24T09:13:13;95072.41;;;30.33;20.28
77288;BME280;66345;42.694;23.346;2023-04-24T09:15:39;95065.63;;;32.34;18.48
77288;BME280;66345;42.694;23.346;2023-04-24T09:18:05;95065.50;;;33.70;16.88
77288;BME280;66345;42.694;23.346;2023-04-24T09:20:32;95063.97;;;30.64;18.95
77288;BME280;66345;42.694;23.346;2023-04-24T09:22:58;95075.97;;;28.31;21.49
77288;BME280;66345;42.694;23.346;2023-04-24T09:25:32;95059.66;;;29.02;20.72
77288;BME280;66345;42.694;23.346;2023-04-24T09:28:01;95061.38;;;27.00;23.59
77288;BME280;66345;42.694;23.346;2023-04-24T09:30:28;95057.25;;;24.62;27.27
77288;BME280;66345;42.694;23.346;2023-04-24T09:35:40;95042.78;;;30.00;20.79
77288;BME280;66345;42.694;23.346;2023-04-24T09:38:06;95030.72;;;31.21;18.81
77288;BME280;66345;42.694;23.346;2023-04-24T09:40:34;95034.50;;;30.61;19.25
77288;BME280;66345;42.694;23.346;2023-04-24T09:42:59;95035.59;;;28.82;20.66
77288;BME280;66345;42.694;23.346;2023-04-24T09:45:38;95040.47;;;26.95;22.98
77288;BME280;66345;42.694;23.346;2023-04-24T09:48:04;95035.16;;;29.45;20.46
77288;BME280;66345;42.694;23.346;2023-04-24T09:50:32;95044.50;;;27.25;23.05
77288;BME280;66345;42.694;23.346;2023-04-24T09:53:02;95037.63;;;29.81;20.04
77288;BME280;66345;42.694;23.346;2023-04-24T09:55:29;95033.22;;;29.46;20.09
77288;BME280;66345;42.694;23.346;2023-04-24T09:57:58;95033.06;;;28.54;21.17
77288;BME280;66345;42.694;23.346;2023-04-24T10:00:29;95024.69;;;29.30;21.04
77288;BME280;66345;42.694;23.346;2023-04-24T10:05:27;95012.47;;;29.36;20.90
77288;BME280;66345;42.694;23.346;2023-04-24T10:07:56;95013.34;;;29.80;20.08
77288;BME280;66345;42.694;23.346;2023-04-24T10:10:22;94999.53;;;31.34;18.39
77288;BME280;66345;42.694;23.346;2023-04-24T10:12:48;95005.94;;;33.00;16.66
77288;BME280;66345;42.694;23.346;2023-04-24T10:15:15;94996.44;;;29.52;20.12
77288;BME280;66345;42.694;23.346;2023-04-24T10:17:47;95003.13;;;29.37;20.45
77288;BME280;66345;42.694;23.346;2023-04-24T10:20:18;94996.31;;;26.85;23.03
77288;BME280;66345;42.694;23.346;2023-04-24T10:22:46;94985.94;;;28.17;22.16
77288;BME280;66345;42.694;23.346;2023-04-24T10:25:19;94983.88;;;28.23;21.85
77288;BME280;66345;42.694;23.346;2023-04-24T10:27:45;94972.34;;;30.44;19.38
77288;BME280;66345;42.694;23.346;2023-04-24T10:30:12;94970.53;;;31.75;18.28
77288;BME280;66345;42.694;23.346;2023-04-24T10:32:37;94968.78;;;30.90;18.96
77288;BME280;66345;42.694;23.346;2023-04-24T10:35:04;94966.97;;;27.81;21.81
77288;BME280;66345;42.694;23.346;2023-04-24T10:37:37;94975.28;;;28.69;21.05
77288;BME280;66345;42.694;23.346;2023-04-24T10:40:03;94973.47;;;25.41;25.29
77288;BME280;66345;42.694;23.346;2023-04-24T10:42:30;94970.50;;;25.00;26.12
77288;BME280;66345;42.694;23.346;2023-04-24T10:44:56;94971.59;;;24.03;27.60
77288;BME280;66345;42.694;23.346;2023-04-24T10:47:23;94963.63;;;23.10;28.29
77288;BME280;66345;42.694;23.346;2023-04-24T10:49:50;94957.69;;;23.42;28.23
77288;BME280;66345;42.694;23.346;2023-04-24T10:52:16;94947.69;;;23.42;28.61
77288;BME280;66345;42.694;23.346;2023-04-24T10:54:45;94954.19;;;23.02;28.97
77288;BME280;66345;42.694;23.346;2023-04-24T11:02:36;94937.59;;;22.64;29.77
77288;BME280;66345;42.694;23.346;2023-04-24T11:05:06;94935.19;;;22.58;29.57
77288;BME280;66345;42.694;23.346;2023-04-24T11:08:09;94953.88;;;22.44;30.09
77288;BME280;66345;42.694;23.346;2023-04-24T11:13:25;94938.31;;;22.00;31.39
77288;BME280;66345;42.694;23.346;2023-04-24T11:16:29;94939.16;;;21.75;32.18
77288;BME280;66345;42.694;23.346;2023-04-24T11:19:06;94940.81;;;21.36;32.70
77288;BME280;66345;42.694;23.346;2023-04-24T11:22:02;94937.00;;;21.16;33.12
77288;BME280;66345;42.694;23.346;2023-04-24T11:35:14;94999.00;;;17.62;54.35
77288;BME280;66345;42.694;23.346;2023-04-24T11:37:48;94991.13;;;17.55;55.57
77288;BME280;66345;42.694;23.346;2023-04-24T11:40:18;94981.63;;;18.42;54.77
77288;BME280;66345;42.694;23.346;2023-04-24T11:42:52;94984.25;;;18.80;51.08
77288;BME280;66345;42.694;23.346;2023-04-24T11:45:22;94965.13;;;19.04;55.21
77288;BME280;66345;42.694;23.346;2023-04-24T11:47:48;94961.28;;;19.22;47.26
77288;BME280;66345;42.694;23.346;2023-04-24T11:50:15;94955.97;;;19.59;46.17
77288;BME280;66345;42.694;23.346;2023-04-24T11:52:43;94955.38;;;19.94;43.82
77288;BME280;66345;42.694;23.346;2023-04-24T11:55:23;94943.31;;;20.49;44.62
77288;BME280;66345;42.694;23.346;2023-04-24T11:57:57;94940.09;;;20.62;39.16
77288;BME280;66345;42.694;23.346;2023-04-24T12:02:50;94939.13;;;21.14;39.81
77288;BME280;66345;42.694;23.346;2023-04-24T12:05:26;94942.59;;;20.84;39.07
77288;BME280;66345;42.694;23.346;2023-04-24T12:07:52;94933.34;;;20.55;35.90
77288;BME280;66345;42.694;23.346;2023-04-24T12:10:22;94930.97;;;20.63;37.85
77288;BME280;66345;42.694;23.346;2023-04-24T12:12:48;94923.50;;;21.11;37.50
77288;BME280;66345;42.694;23.346;2023-04-24T12:15:16;94922.41;;;21.07;35.00
77288;BME280;66345;42.694;23.346;2023-04-24T12:17:42;94921.03;;;20.89;36.16
77288;BME280;66345;42.694;23.346;2023-04-24T12:20:10;94921.56;;;20.91;36.10
77288;BME280;66345;42.694;23.346;2023-04-24T12:25:16;94921.78;;;20.59;35.51
77288;BME280;66345;42.694;23.346;2023-04-24T12:27:43;94914.56;;;20.95;35.80
77288;BME280;66345;42.694;23.346;2023-04-24T12:30:16;94897.06;;;21.18;36.54
77288;BME280;66345;42.694;23.346;2023-04-24T12:32:43;94897.59;;;21.66;35.53
77288;BME280;66345;42.694;23.346;2023-04-24T12:35:09;94887.34;;;21.58;35.27
77288;BME280;66345;42.694;23.346;2023-04-24T12:37:34;94880.31;;;21.67;35.25
77288;BME280;66345;42.694;23.346;2023-04-24T12:40:09;94875.19;;;21.15;34.28
77288;BME280;66345;42.694;23.346;2023-04-24T12:42:41;94870.03;;;20.93;35.80
77288;BME280;66345;42.694;23.346;2023-04-24T12:45:07;94872.72;;;20.72;35.63
77288;BME280;66345;42.694;23.346;2023-04-24T12:47:33;94868.44;;;20.82;36.28
77288;BME280;66345;42.694;23.346;2023-04-24T12:49:59;94868.41;;;20.71;35.29
77288;BME280;66345;42.694;23.346;2023-04-24T12:52:26;94863.31;;;20.95;34.87
77288;BME280;66345;42.694;23.346;2023-04-24T12:54:54;94853.06;;;20.92;34.92
77288;BME280;66345;42.694;23.346;2023-04-24T12:57:20;94846.28;;;20.59;34.36
77288;BME280;66345;42.694;23.346;2023-04-24T12:59:47;94847.25;;;20.28;35.62
77288;BME280;66345;42.694;23.346;2023-04-24T13:02:13;94834.91;;;20.47;35.39
77288;BME280;66345;42.694;23.346;2023-04-24T13:04:38;94825.31;;;19.88;36.44
77288;BME280;66345;42.694;23.346;2023-04-24T13:07:05;94822.72;;;20.19;35.86
77288;BME280;66345;42.694;23.346;2023-04-24T13:09:31;94813.31;;;20.27;35.99
77288;BME280;66345;42.694;23.346;2023-04-24T13:11:56;94814.50;;;20.71;35.21
77288;BME280;66345;42.694;23.346;2023-04-24T13:14:23;94807.44;;;21.21;34.24
77288;BME280;66345;42.694;23.346;2023-04-24T13:16:49;94806.41;;;21.32;34.40